aviador You're here:

LFMK Decoded Metar

Carcassonne in FRANCE
Report Time2018-06-17 21:30:00
UTC Time2018-06-17 21:57:49
Flight Rules vfr VFR
Wind270° at 09 kt
W.Decomp.*RWY 28: 8.9 kt HW 1.6 kt LCW
W.Rank270° ranks 4
Current wind is above 270° avg. (8.2)
Visibility9999 m
Phenomena:N/A
Clouds:Overcast 064 Hf
Expected CloudBase > 2,400 ft AGL from Temp-Dew spread
Ceiling6,400 ft
Temp19°C (ISA +5)
Dew Point13°C (68% RH)
AAT16.7°C
QNH1024 hPa
Density Alt827 ft
Elevation427 ft
Report Wrong Elevation
Raw Report
LFMK 172130Z AUTO 27009KT 250V310 9999 OVC064 19/13 Q1024=

Extra information for LFMK:More info

Metar Taf Metar & Taf Last 4 Metars F.Rules Stats Wind Profile Meteogram Temp Stats Airport Information Weather charts Add Link Nearby VenuesMetar ALERT Operation Metar Decoded Social comments

AudeAéroServices
Aéroprakt A-22
Husky Dealer